createdAt,value
2022-10-18T00:00:53.859Z,16.37
2022-10-18T00:01:53.819Z,16.40
2022-10-18T00:02:54.019Z,16.38
2022-10-18T00:03:53.748Z,16.40
2022-10-18T00:04:53.749Z,16.41
2022-10-18T00:05:53.980Z,16.41
2022-10-18T00:06:53.789Z,16.42
2022-10-18T00:07:53.790Z,16.42
2022-10-18T00:08:53.820Z,16.42
2022-10-18T00:09:53.840Z,16.42
2022-10-18T00:10:53.799Z,16.41
2022-10-18T00:11:53.770Z,16.40
2022-10-18T00:12:53.963Z,16.40
2022-10-18T00:13:53.802Z,16.37
2022-10-18T00:14:54.457Z,16.37
2022-10-18T00:15:55.178Z,16.34
2022-10-18T00:16:53.799Z,16.33
2022-10-18T00:17:53.882Z,16.34
2022-10-18T00:18:54.504Z,16.33
2022-10-18T00:19:53.782Z,16.35
2022-10-18T00:20:55.299Z,16.38
2022-10-18T00:21:54.072Z,16.40
2022-10-18T00:22:54.214Z,16.40
2022-10-18T00:23:53.705Z,16.38
2022-10-18T00:24:53.591Z,16.38
2022-10-18T00:25:53.512Z,16.38
2022-10-18T00:26:53.796Z,16.37
2022-10-18T00:27:53.563Z,16.40
2022-10-18T00:28:53.662Z,16.40
2022-10-18T00:29:53.784Z,16.40
2022-10-18T00:30:54.189Z,16.40
2022-10-18T00:31:54.468Z,16.38
2022-10-18T00:32:53.475Z,16.37
2022-10-18T00:33:53.672Z,16.38
2022-10-18T00:34:53.651Z,16.37
2022-10-18T00:35:53.666Z,16.35
2022-10-18T00:36:53.865Z,16.35
2022-10-18T00:37:53.865Z,16.34
2022-10-18T00:38:54.817Z,16.33
2022-10-18T00:39:55.032Z,16.33
2022-10-18T00:40:54.496Z,16.33
2022-10-18T00:41:54.589Z,16.34
2022-10-18T00:42:54.045Z,16.31
2022-10-18T00:43:54.428Z,16.33
2022-10-18T00:44:54.112Z,16.33
2022-10-18T00:45:53.745Z,16.31
2022-10-18T00:46:54.366Z,16.31
2022-10-18T00:47:53.817Z,16.34
2022-10-18T00:49:54.319Z,16.33
2022-10-18T00:50:54.316Z,16.31
2022-10-18T00:51:54.603Z,16.33
2022-10-18T00:52:54.067Z,16.33
2022-10-18T00:53:54.060Z,16.35
2022-10-18T00:54:55.005Z,16.34
2022-10-18T00:55:54.860Z,16.37
2022-10-18T00:56:54.329Z,16.38
2022-10-18T00:58:55.001Z,16.41
2022-10-18T00:59:53.849Z,16.40
2022-10-18T01:00:53.785Z,16.40
2022-10-18T01:01:53.202Z,16.40
2022-10-18T01:02:53.158Z,16.35
2022-10-18T01:03:53.171Z,16.35
2022-10-18T01:04:53.310Z,16.34
2022-10-18T01:05:53.297Z,16.34
2022-10-18T01:06:53.314Z,16.31
2022-10-18T01:07:53.511Z,16.30
2022-10-18T01:08:53.193Z,16.27
2022-10-18T01:09:53.829Z,16.26
2022-10-18T01:10:53.391Z,16.23
2022-10-18T01:11:53.659Z,16.20
2022-10-18T01:12:53.431Z,16.16
2022-10-18T01:13:54.359Z,16.14
2022-10-18T01:14:53.847Z,16.15
2022-10-18T01:15:53.257Z,16.14
2022-10-18T01:16:53.004Z,16.14
2022-10-18T01:17:53.024Z,16.12
2022-10-18T01:18:53.079Z,16.11
2022-10-18T01:19:52.955Z,16.11
2022-10-18T01:20:52.951Z,16.07
2022-10-18T01:21:53.399Z,16.07
2022-10-18T01:22:53.352Z,16.06
2022-10-18T01:23:53.152Z,16.06
2022-10-18T01:24:53.008Z,16.06
2022-10-18T01:25:52.984Z,16.07
2022-10-18T01:26:53.000Z,16.07
2022-10-18T01:27:53.003Z,16.06
2022-10-18T01:28:53.265Z,16.06
2022-10-18T01:29:54.205Z,16.04
2022-10-18T01:30:54.135Z,16.06
2022-10-18T01:31:56.391Z,16.06
2022-10-18T01:32:53.976Z,16.06
2022-10-18T01:33:53.469Z,16.07
2022-10-18T01:34:53.826Z,16.07
2022-10-18T01:35:53.416Z,16.06
2022-10-18T01:36:54.006Z,16.04
2022-10-18T01:37:53.920Z,16.03
2022-10-18T01:38:54.549Z,16.01
2022-10-18T01:39:53.337Z,16.01
2022-10-18T01:40:53.288Z,16.03
2022-10-18T01:41:52.916Z,16.01
2022-10-18T01:42:52.920Z,16.03
2022-10-18T01:43:52.799Z,16.01
2022-10-18T01:44:53.566Z,16.00
2022-10-18T01:45:53.273Z,16.00
2022-10-18T01:46:52.820Z,15.99
2022-10-18T01:47:52.659Z,15.97
2022-10-18T01:48:52.670Z,15.94
2022-10-18T01:49:52.758Z,15.93
2022-10-18T01:50:52.648Z,15.93
2022-10-18T01:51:53.038Z,15.96
2022-10-18T01:52:52.786Z,15.97
2022-10-18T01:53:53.306Z,15.94
2022-10-18T01:54:53.446Z,15.96
2022-10-18T01:55:52.528Z,15.94
2022-10-18T01:56:52.699Z,15.93
2022-10-18T01:57:52.852Z,15.92
2022-10-18T01:58:52.659Z,15.88
2022-10-18T01:59:52.826Z,15.89
2022-10-18T02:00:53.322Z,15.89
2022-10-18T02:01:52.552Z,15.89
2022-10-18T02:02:52.520Z,15.89
2022-10-18T02:03:52.876Z,15.92
2022-10-18T02:04:53.193Z,15.93
2022-10-18T02:05:52.739Z,15.94
2022-10-18T02:06:52.420Z,15.93
2022-10-18T02:08:00.405Z,15.93
2022-10-18T02:08:53.380Z,15.93
2022-10-18T02:09:52.370Z,15.94
2022-10-18T02:10:52.362Z,15.96
2022-10-18T02:11:52.363Z,15.97
2022-10-18T02:12:52.333Z,15.99
2022-10-18T02:13:52.321Z,15.99
2022-10-18T02:14:52.311Z,15.99
2022-10-18T02:15:52.325Z,16.00
2022-10-18T02:16:52.291Z,16.00
2022-10-18T02:17:52.274Z,15.97
2022-10-18T02:18:52.294Z,15.96
2022-10-18T02:19:52.255Z,15.94
2022-10-18T02:20:52.245Z,15.94
2022-10-18T02:21:52.233Z,15.92
2022-10-18T02:22:52.252Z,15.89
2022-10-18T02:23:52.213Z,15.88
2022-10-18T02:24:52.203Z,15.88
2022-10-18T02:25:52.185Z,15.86
2022-10-18T02:26:52.185Z,15.86
2022-10-18T02:27:52.163Z,15.86
2022-10-18T02:28:52.186Z,15.84
2022-10-18T02:29:52.144Z,15.82
2022-10-18T02:30:52.135Z,15.81
2022-10-18T02:31:52.126Z,15.79
2022-10-18T02:32:52.274Z,15.78
2022-10-18T02:33:52.126Z,15.76
2022-10-18T02:34:52.097Z,15.75
2022-10-18T02:35:52.083Z,15.74
2022-10-18T02:36:52.166Z,15.72
2022-10-18T02:37:52.265Z,15.72
2022-10-18T02:38:52.066Z,15.70
2022-10-18T02:39:52.203Z,15.68
2022-10-18T02:40:52.026Z,15.70
2022-10-18T02:41:52.174Z,15.68
2022-10-18T02:42:52.106Z,15.68
2022-10-18T02:43:52.011Z,15.67
2022-10-18T02:44:52.137Z,15.67
2022-10-18T02:45:51.966Z,15.68
2022-10-18T02:46:52.141Z,15.70
2022-10-18T02:47:51.949Z,15.70
2022-10-18T02:48:51.959Z,15.70
2022-10-18T02:49:51.927Z,15.70
2022-10-18T02:50:51.917Z,15.74
2022-10-18T02:51:51.908Z,15.74
2022-10-18T02:52:51.898Z,15.75
2022-10-18T02:53:51.879Z,15.76
2022-10-18T02:54:51.896Z,15.78
2022-10-18T02:55:51.859Z,15.79
2022-10-18T02:56:51.849Z,15.79
2022-10-18T02:57:51.842Z,15.81
2022-10-18T02:58:51.849Z,15.84
2022-10-18T02:59:51.840Z,15.85
2022-10-18T03:00:51.811Z,15.85
2022-10-18T03:01:51.824Z,15.85
2022-10-18T03:02:51.788Z,15.86
2022-10-18T03:03:51.771Z,15.89
2022-10-18T03:04:51.782Z,15.89
2022-10-18T03:05:51.750Z,15.89
2022-10-18T03:06:51.742Z,15.89
2022-10-18T03:07:51.731Z,15.89
2022-10-18T03:08:51.721Z,15.89
2022-10-18T03:09:51.731Z,15.89
2022-10-18T03:10:51.731Z,15.89
2022-10-18T03:11:51.693Z,15.89
2022-10-18T03:12:51.672Z,15.88
2022-10-18T03:13:51.667Z,15.88
2022-10-18T03:14:51.650Z,15.86
2022-10-18T03:15:51.642Z,15.85
2022-10-18T03:16:51.653Z,15.86
2022-10-18T03:17:51.622Z,15.85
2022-10-18T03:18:51.633Z,15.86
2022-10-18T03:19:51.600Z,15.85
2022-10-18T03:20:51.583Z,15.84
2022-10-18T03:21:51.604Z,15.82
2022-10-18T03:22:51.563Z,15.84
2022-10-18T03:23:51.554Z,15.82
2022-10-18T03:24:51.541Z,15.82
2022-10-18T03:25:51.533Z,15.82
2022-10-18T03:26:51.543Z,15.81
2022-10-18T03:27:51.512Z,15.81
2022-10-18T03:28:51.510Z,15.81
2022-10-18T03:29:51.487Z,15.79
2022-10-18T03:30:51.476Z,15.78
2022-10-18T03:31:51.465Z,15.76
2022-10-18T03:32:51.476Z,15.76
2022-10-18T03:33:51.445Z,15.76
2022-10-18T03:34:51.443Z,15.76
2022-10-18T03:35:51.450Z,15.76
2022-10-18T03:36:51.409Z,15.76
2022-10-18T03:37:51.398Z,15.75
2022-10-18T03:38:51.406Z,15.75
2022-10-18T03:39:51.378Z,15.76
2022-10-18T03:40:51.372Z,15.76
2022-10-18T03:41:51.377Z,15.76
2022-10-18T03:42:51.346Z,15.78
2022-10-18T03:43:51.340Z,15.79
2022-10-18T03:44:51.318Z,15.79
2022-10-18T03:45:51.317Z,15.81
2022-10-18T03:46:51.329Z,15.78
2022-10-18T03:47:51.290Z,15.79
2022-10-18T03:48:51.278Z,15.79
2022-10-18T03:49:54.599Z,15.78
2022-10-18T03:50:52.259Z,15.79
2022-10-18T03:51:51.269Z,15.79
2022-10-18T03:52:51.230Z,15.79
2022-10-18T03:53:51.227Z,15.79
2022-10-18T03:54:51.210Z,15.78
2022-10-18T03:55:51.201Z,15.81
2022-10-18T03:56:51.212Z,15.81
2022-10-18T03:57:51.181Z,15.81
2022-10-18T03:58:51.170Z,15.79
2022-10-18T03:59:51.162Z,15.79
2022-10-18T04:00:51.150Z,15.79
2022-10-18T04:01:51.205Z,15.78
2022-10-18T04:02:53.492Z,15.78
2022-10-18T04:03:51.111Z,15.79
2022-10-18T04:04:51.102Z,15.79
2022-10-18T04:05:51.092Z,15.79
2022-10-18T04:06:51.091Z,15.79
2022-10-18T04:07:51.094Z,15.79
2022-10-18T04:08:51.059Z,15.78
2022-10-18T04:09:51.051Z,15.76
2022-10-18T04:10:51.033Z,15.75
2022-10-18T04:11:51.024Z,15.75
2022-10-18T04:12:51.050Z,15.75
2022-10-18T04:13:51.011Z,15.74
2022-10-18T04:14:50.992Z,15.74
2022-10-18T04:15:50.994Z,15.74
2022-10-18T04:16:50.968Z,15.72
2022-10-18T04:17:50.965Z,15.70
2022-10-18T04:18:50.973Z,15.70
2022-10-18T04:19:50.964Z,15.70
2022-10-18T04:20:50.925Z,15.70
2022-10-18T04:21:50.915Z,15.72
2022-10-18T04:22:50.903Z,15.72
2022-10-18T04:23:50.924Z,15.70
2022-10-18T04:24:50.885Z,15.68
2022-10-18T04:25:50.882Z,15.66
2022-10-18T04:26:50.870Z,15.67
2022-10-18T04:27:50.855Z,15.64
2022-10-18T04:28:50.901Z,15.67
2022-10-18T04:29:50.830Z,15.67
2022-10-18T04:30:50.818Z,15.67
2022-10-18T04:31:50.805Z,15.64
2022-10-18T04:32:50.798Z,15.66
2022-10-18T04:33:50.807Z,15.67
2022-10-18T04:34:50.776Z,15.64
2022-10-18T04:35:50.769Z,15.64
2022-10-18T04:36:50.750Z,15.63
2022-10-18T04:37:50.748Z,15.61
2022-10-18T04:38:50.728Z,15.63
2022-10-18T04:39:53.515Z,15.63
2022-10-18T04:40:50.707Z,15.63
2022-10-18T04:41:50.696Z,15.64
2022-10-18T04:42:50.687Z,15.61
2022-10-18T04:43:50.680Z,15.63
2022-10-18T04:44:50.686Z,15.63
2022-10-18T04:45:50.678Z,15.64
2022-10-18T04:46:50.640Z,15.66
2022-10-18T04:47:50.629Z,15.64
2022-10-18T04:48:50.619Z,15.66
2022-10-18T04:49:50.628Z,15.63
2022-10-18T04:50:50.599Z,15.64
2022-10-18T04:51:50.589Z,15.64
2022-10-18T04:53:50.560Z,15.66
2022-10-18T04:54:50.579Z,15.66
2022-10-18T04:55:50.550Z,15.66
2022-10-18T04:56:50.540Z,15.67
2022-10-18T04:57:50.520Z,15.66
2022-10-18T04:58:50.512Z,15.66
2022-10-18T04:59:57.573Z,15.66
2022-10-18T05:00:50.484Z,15.66
2022-10-18T05:01:50.541Z,15.66
2022-10-18T05:02:50.475Z,15.64
2022-10-18T05:03:50.457Z,15.63
2022-10-18T05:04:50.475Z,15.61
2022-10-18T05:06:01.344Z,15.61
2022-10-18T05:06:51.424Z,15.59
2022-10-18T05:07:50.412Z,15.57
2022-10-18T05:08:50.404Z,15.59
2022-10-18T05:09:50.415Z,15.57
2022-10-18T05:10:50.385Z,15.57
2022-10-18T05:11:50.367Z,15.57
2022-10-18T05:12:50.358Z,15.57
2022-10-18T05:13:51.015Z,15.57
2022-10-18T05:14:50.362Z,15.56
2022-10-18T05:15:50.331Z,15.56
2022-10-18T05:16:50.325Z,15.54
2022-10-18T05:17:50.305Z,15.54
2022-10-18T05:18:50.295Z,15.52
2022-10-18T05:19:50.307Z,15.51
2022-10-18T05:20:50.268Z,15.51
2022-10-18T05:21:50.276Z,15.49
2022-10-18T05:22:50.249Z,15.49
2022-10-18T05:23:50.237Z,15.48
2022-10-18T05:24:50.229Z,15.48
2022-10-18T05:25:50.210Z,15.48
2022-10-18T05:26:50.209Z,15.48
2022-10-18T05:27:50.216Z,15.46
2022-10-18T05:28:50.229Z,15.46
2022-10-18T05:29:50.225Z,15.46
2022-10-18T05:30:50.161Z,15.46
2022-10-18T05:31:50.152Z,15.46
2022-10-18T05:32:50.176Z,15.45
2022-10-18T05:33:50.128Z,15.43
2022-10-18T05:34:50.119Z,15.43
2022-10-18T05:35:50.109Z,15.42
2022-10-18T05:36:50.091Z,15.42
2022-10-18T05:37:50.081Z,15.42
2022-10-18T05:38:50.101Z,15.41
2022-10-18T05:39:50.060Z,15.42
2022-10-18T05:40:50.049Z,15.43
2022-10-18T05:41:50.041Z,15.43
2022-10-18T05:42:50.051Z,15.46
2022-10-18T05:43:50.040Z,15.46
2022-10-18T05:44:50.053Z,15.49
2022-10-18T05:45:50.060Z,15.48
2022-10-18T05:46:49.990Z,15.51
2022-10-18T05:47:49.984Z,15.51
2022-10-18T05:48:49.983Z,15.54
2022-10-18T05:49:50.013Z,15.52
2022-10-18T05:50:49.941Z,15.54
2022-10-18T05:51:49.934Z,15.56
2022-10-18T05:52:49.925Z,15.56
2022-10-18T05:53:49.931Z,15.57
2022-10-18T05:54:49.903Z,15.59
2022-10-18T05:55:49.892Z,15.59
2022-10-18T05:56:49.884Z,15.59
2022-10-18T05:57:49.863Z,15.57
2022-10-18T05:58:49.873Z,15.60
2022-10-18T05:59:49.905Z,15.60
2022-10-18T06:00:49.843Z,15.60
2022-10-18T06:01:49.823Z,15.60
2022-10-18T06:02:49.851Z,15.63
2022-10-18T06:03:49.816Z,15.63
2022-10-18T06:04:49.785Z,15.64
2022-10-18T06:05:49.775Z,15.64
2022-10-18T06:06:49.766Z,15.66
2022-10-18T06:07:49.754Z,15.67
2022-10-18T06:08:49.769Z,15.68
2022-10-18T06:09:49.730Z,15.66
2022-10-18T06:10:49.725Z,15.66
2022-10-18T06:11:49.705Z,15.63
2022-10-18T06:12:49.704Z,15.63
2022-10-18T06:13:49.707Z,15.63
2022-10-18T06:14:49.685Z,15.64
2022-10-18T06:15:49.670Z,15.66
2022-10-18T06:16:49.656Z,15.66
2022-10-18T06:17:49.640Z,15.67
2022-10-18T06:18:49.637Z,15.67
2022-10-18T06:19:49.677Z,15.70
2022-10-18T06:20:49.608Z,15.72
2022-10-18T06:21:49.601Z,15.70
2022-10-18T06:22:49.598Z,15.70
2022-10-18T06:23:49.598Z,15.68
2022-10-18T06:24:51.788Z,15.68
2022-10-18T06:25:50.551Z,15.68
2022-10-18T06:26:49.549Z,15.72
2022-10-18T06:27:49.529Z,15.74
2022-10-18T06:28:49.593Z,15.76
2022-10-18T06:29:49.540Z,15.78
2022-10-18T06:30:49.499Z,15.81
2022-10-18T06:31:49.498Z,15.82
2022-10-18T06:32:49.478Z,15.84
2022-10-18T06:33:49.481Z,15.84
2022-10-18T06:34:49.479Z,15.85
2022-10-18T06:35:49.448Z,15.85
2022-10-18T06:36:49.439Z,15.88
2022-10-18T06:37:49.428Z,15.88
2022-10-18T06:38:49.411Z,15.89
2022-10-18T06:39:49.430Z,15.94
2022-10-18T06:40:49.400Z,15.94
2022-10-18T06:41:49.382Z,15.96
2022-10-18T06:42:59.939Z,15.97
2022-10-18T06:43:50.392Z,15.96
2022-10-18T06:44:49.352Z,15.96
2022-10-18T06:45:49.358Z,15.97
2022-10-18T06:46:49.329Z,15.99
2022-10-18T06:47:49.321Z,16.03
2022-10-18T06:48:49.312Z,16.03
2022-10-18T06:49:49.373Z,16.03
2022-10-18T06:50:49.282Z,16.06
2022-10-18T06:51:49.304Z,16.06
2022-10-18T06:52:49.271Z,16.03
2022-10-18T06:53:59.737Z,16.06
2022-10-18T06:54:50.241Z,16.03
2022-10-18T06:55:49.234Z,16.03
2022-10-18T06:56:49.246Z,16.03
2022-10-18T06:57:49.204Z,16.00
2022-10-18T06:58:49.259Z,15.97
2022-10-18T06:59:49.183Z,15.96
2022-10-18T07:00:49.174Z,15.93
2022-10-18T07:01:49.211Z,15.92
2022-10-18T07:02:49.183Z,15.93
2022-10-18T07:03:49.143Z,15.93
2022-10-18T07:04:49.132Z,15.93
2022-10-18T07:05:49.114Z,15.94
2022-10-18T07:06:49.107Z,15.92
2022-10-18T07:07:52.893Z,15.92
2022-10-18T07:08:50.105Z,15.89
2022-10-18T07:09:49.076Z,15.92
2022-10-18T07:10:49.065Z,15.92
2022-10-18T07:11:49.048Z,15.93
2022-10-18T07:12:49.046Z,15.93
2022-10-18T07:13:49.047Z,15.93
2022-10-18T07:14:49.024Z,15.89
2022-10-18T07:15:49.010Z,15.93
2022-10-18T07:16:48.997Z,15.93
2022-10-18T07:17:48.987Z,15.96
2022-10-18T07:18:48.998Z,15.97
2022-10-18T07:19:48.964Z,15.99
2022-10-18T07:20:48.957Z,16.03
2022-10-18T07:21:48.947Z,16.03
2022-10-18T07:22:48.937Z,16.03
2022-10-18T07:23:48.948Z,16.04
2022-10-18T07:24:48.917Z,16.04
2022-10-18T07:25:48.899Z,16.03
2022-10-18T07:26:48.892Z,16.04
2022-10-18T07:27:48.870Z,16.03
2022-10-18T07:28:48.908Z,16.04
2022-10-18T07:29:48.872Z,16.04
2022-10-18T07:30:48.840Z,16.06
2022-10-18T07:31:48.829Z,16.06
2022-10-18T07:32:48.826Z,16.07
2022-10-18T07:33:48.809Z,16.06
2022-10-18T07:34:48.820Z,16.07
2022-10-18T07:35:48.792Z,16.07
2022-10-18T07:36:48.782Z,16.07
2022-10-18T07:37:48.783Z,16.11
2022-10-18T07:38:48.761Z,16.09
2022-10-18T07:39:48.770Z,16.09
2022-10-18T07:40:48.742Z,16.11
2022-10-18T07:41:48.730Z,16.04
2022-10-18T07:42:48.710Z,16.01
2022-10-18T07:43:48.705Z,16.04
2022-10-18T07:44:48.691Z,16.06
2022-10-18T07:45:48.704Z,16.11
2022-10-18T07:46:48.673Z,16.12
2022-10-18T07:47:48.651Z,16.12
2022-10-18T07:48:48.647Z,16.12
2022-10-18T07:49:48.684Z,16.14
2022-10-18T07:50:48.661Z,16.11
2022-10-18T07:51:48.615Z,16.06
2022-10-18T07:52:48.603Z,16.07
2022-10-18T07:53:48.593Z,16.09
2022-10-18T07:55:48.574Z,16.04
2022-10-18T07:56:48.583Z,16.04
2022-10-18T07:57:48.545Z,16.07
2022-10-18T07:58:48.536Z,16.09
2022-10-18T07:59:48.523Z,16.11
2022-10-18T08:00:48.559Z,16.09
2022-10-18T08:01:48.568Z,16.11
2022-10-18T08:02:48.495Z,16.14
2022-10-18T08:03:48.485Z,16.12
2022-10-18T08:04:48.634Z,16.06
2022-10-18T08:05:48.476Z,16.04
2022-10-18T08:06:48.497Z,16.03
2022-10-18T08:07:48.435Z,16.04
2022-10-18T08:08:48.436Z,16.03
2022-10-18T08:09:48.416Z,16.04
2022-10-18T08:10:48.405Z,16.09
2022-10-18T08:11:48.407Z,16.12
2022-10-18T08:12:48.388Z,16.16
2022-10-18T08:13:48.386Z,16.23
2022-10-18T08:14:48.359Z,16.31
2022-10-18T08:15:48.348Z,16.41
2022-10-18T08:16:48.425Z,16.50
2022-10-18T08:17:48.330Z,16.56
2022-10-18T08:18:48.317Z,16.52
2022-10-18T08:19:58.496Z,16.59
2022-10-18T08:20:49.290Z,16.68
2022-10-18T08:21:48.285Z,16.77
2022-10-18T08:22:48.291Z,16.83
2022-10-18T08:23:48.259Z,16.92
2022-10-18T08:24:48.249Z,16.99
2022-10-18T08:25:48.240Z,17.07
2022-10-18T08:26:48.230Z,17.14
2022-10-18T08:27:48.241Z,17.22
2022-10-18T08:28:54.093Z,17.32
2022-10-18T08:29:49.227Z,17.33
2022-10-18T08:30:48.181Z,17.50
2022-10-18T08:31:48.196Z,17.64
2022-10-18T08:32:48.161Z,17.71
2022-10-18T08:33:48.187Z,17.76
2022-10-18T08:34:48.151Z,17.81
2022-10-18T08:35:48.133Z,17.87
2022-10-18T08:36:48.126Z,17.81
2022-10-18T08:37:48.133Z,17.76
2022-10-18T08:38:48.101Z,17.64
2022-10-18T08:39:48.083Z,17.67
2022-10-18T08:40:48.079Z,17.76
2022-10-18T08:41:48.121Z,17.74
2022-10-18T08:42:48.053Z,17.76
2022-10-18T08:43:48.064Z,17.73
2022-10-18T08:44:48.062Z,17.71
2022-10-18T08:45:48.022Z,17.70
2022-10-18T08:46:48.012Z,17.74
2022-10-18T08:47:48.001Z,17.66
2022-10-18T08:48:47.990Z,17.64
2022-10-18T08:49:47.994Z,17.57
2022-10-18T08:50:47.973Z,17.44
2022-10-18T08:51:47.956Z,17.36
2022-10-18T08:52:47.951Z,17.40
2022-10-18T08:53:47.944Z,17.30
2022-10-18T08:54:47.944Z,17.29
2022-10-18T08:55:47.913Z,17.35
2022-10-18T08:56:47.903Z,17.33
2022-10-18T08:57:47.886Z,17.28
2022-10-18T08:58:47.883Z,17.28
2022-10-18T08:59:47.924Z,17.32
2022-10-18T09:00:47.856Z,17.25
2022-10-18T09:02:47.844Z,17.28
2022-10-18T09:03:47.914Z,17.11
2022-10-18T09:04:47.837Z,17.11
2022-10-18T09:05:47.806Z,17.13
2022-10-18T09:06:47.788Z,17.17
2022-10-18T09:07:47.778Z,17.22
2022-10-18T09:08:47.798Z,17.20
2022-10-18T09:09:47.758Z,17.10
2022-10-18T09:10:47.769Z,17.04
2022-10-18T09:11:47.738Z,17.00
2022-10-18T09:12:47.728Z,17.03
2022-10-18T09:13:47.739Z,17.08
2022-10-18T09:14:47.714Z,17.11
2022-10-18T09:15:47.698Z,17.17
2022-10-18T09:16:47.682Z,17.25
2022-10-18T09:17:47.671Z,17.30
2022-10-18T09:18:47.658Z,17.25
2022-10-18T09:19:47.706Z,17.11
2022-10-18T09:20:47.647Z,17.13
2022-10-18T09:21:47.630Z,17.25
2022-10-18T09:22:47.620Z,17.36
2022-10-18T09:23:47.609Z,17.46
2022-10-18T09:24:47.610Z,17.55
2022-10-18T09:25:47.589Z,17.64
2022-10-18T09:26:47.571Z,17.53
2022-10-18T09:27:47.562Z,17.46
2022-10-18T09:28:47.631Z,17.36
2022-10-18T09:29:47.563Z,17.29
2022-10-18T09:30:47.530Z,17.30
2022-10-18T09:31:47.521Z,17.41
2022-10-18T09:32:47.516Z,17.40
2022-10-18T09:33:47.502Z,17.40
2022-10-18T09:34:47.502Z,17.46
2022-10-18T09:35:47.512Z,17.48
2022-10-18T09:36:47.464Z,17.48
2022-10-18T09:37:47.565Z,17.47
2022-10-18T09:38:47.435Z,17.44
2022-10-18T09:39:47.456Z,17.44
2022-10-18T09:40:47.424Z,17.43
2022-10-18T09:41:47.413Z,17.46
2022-10-18T09:42:47.400Z,17.43
2022-10-18T09:43:47.394Z,17.54
2022-10-18T09:44:47.377Z,17.46
2022-10-18T09:45:47.395Z,17.59
2022-10-18T09:46:47.356Z,17.50
2022-10-18T09:47:47.375Z,17.44
2022-10-18T09:48:47.326Z,17.43
2022-10-18T09:49:47.347Z,17.44
2022-10-18T09:50:47.367Z,17.48
2022-10-18T09:51:47.307Z,17.48
2022-10-18T09:52:47.286Z,17.47
2022-10-18T09:53:47.298Z,17.43
2022-10-18T09:54:47.266Z,17.63
2022-10-18T09:55:47.286Z,17.87
2022-10-18T09:56:47.277Z,18.09
2022-10-18T09:57:47.264Z,18.33
2022-10-18T09:58:47.218Z,18.47
2022-10-18T09:59:47.244Z,18.46
2022-10-18T10:00:47.198Z,18.28
2022-10-18T10:01:47.188Z,18.19
2022-10-18T10:02:47.211Z,18.00
2022-10-18T10:03:47.185Z,18.04
2022-10-18T10:04:47.162Z,17.87
2022-10-18T10:05:47.170Z,18.10
2022-10-18T10:06:47.133Z,18.24
2022-10-18T10:07:47.120Z,18.33
2022-10-18T10:08:47.140Z,18.43
2022-10-18T10:09:47.103Z,18.47
2022-10-18T10:10:47.111Z,18.33
2022-10-18T10:11:47.081Z,18.46
2022-10-18T10:12:47.081Z,18.49
2022-10-18T10:13:47.066Z,18.54
2022-10-18T10:14:47.050Z,18.49
2022-10-18T10:15:47.069Z,18.31
2022-10-18T10:16:47.031Z,18.24
2022-10-18T10:17:47.022Z,18.58
2022-10-18T10:18:47.023Z,18.83
2022-10-18T10:19:46.993Z,19.01
2022-10-18T10:20:46.980Z,19.73
2022-10-18T10:21:47.001Z,20.71
2022-10-18T10:22:46.962Z,20.23
2022-10-18T10:23:46.953Z,19.57
2022-10-18T10:24:46.945Z,19.24
2022-10-18T10:25:46.932Z,19.28
2022-10-18T10:26:46.923Z,19.31
2022-10-18T10:27:46.934Z,19.46
2022-10-18T10:28:46.955Z,19.78
2022-10-18T10:29:46.954Z,19.63
2022-10-18T10:30:46.876Z,19.61
2022-10-18T10:31:46.884Z,19.53
2022-10-18T10:32:46.847Z,19.42
2022-10-18T10:33:46.847Z,19.21
2022-10-18T10:34:46.833Z,19.18
2022-10-18T10:35:53.600Z,18.98
2022-10-18T10:36:47.826Z,18.91
2022-10-18T10:37:46.827Z,18.80
2022-10-18T10:38:46.787Z,19.05
2022-10-18T10:39:55.444Z,20.30
2022-10-18T10:40:47.758Z,20.71
2022-10-18T10:41:46.777Z,21.51
2022-10-18T10:42:46.739Z,21.85
2022-10-18T10:43:46.757Z,22.17
2022-10-18T10:44:46.720Z,22.87
2022-10-18T10:45:46.715Z,22.72
2022-10-18T10:46:46.706Z,22.90
2022-10-18T10:47:46.688Z,23.67
2022-10-18T10:48:46.704Z,23.42
2022-10-18T10:49:46.660Z,23.52
2022-10-18T10:50:46.660Z,24.16
2022-10-18T10:51:53.673Z,24.57
2022-10-18T10:52:47.632Z,25.01
2022-10-18T10:53:46.651Z,25.28
2022-10-18T10:54:51.275Z,25.72
2022-10-18T10:55:47.601Z,26.06
2022-10-18T10:56:46.591Z,25.82
2022-10-18T10:57:46.581Z,25.74
2022-10-18T10:58:46.563Z,26.08
2022-10-18T10:59:46.583Z,26.08
2022-10-18T11:00:54.364Z,25.94
2022-10-18T11:01:46.544Z,25.25
2022-10-18T11:02:59.197Z,24.27
2022-10-18T11:03:47.557Z,24.10
2022-10-18T11:04:46.506Z,24.31
2022-10-18T11:05:46.526Z,24.60
2022-10-18T11:06:46.485Z,24.88
2022-10-18T11:07:46.476Z,24.79
2022-10-18T11:09:46.456Z,24.10
2022-10-18T11:10:46.469Z,23.47
2022-10-18T11:11:46.428Z,23.89
2022-10-18T11:12:46.420Z,24.64
2022-10-18T11:13:49.986Z,25.25
2022-10-18T11:14:47.445Z,24.97
2022-10-18T11:15:46.628Z,25.46
2022-10-18T11:16:46.370Z,25.30
2022-10-18T11:17:46.426Z,25.15
2022-10-18T11:18:46.348Z,25.16
2022-10-18T11:19:46.339Z,25.17
2022-10-18T11:20:46.371Z,25.43
2022-10-18T11:21:46.350Z,24.94
2022-10-18T11:22:46.301Z,25.06
2022-10-18T11:23:46.333Z,24.92
2022-10-18T11:24:46.363Z,25.37
2022-10-18T11:25:46.368Z,24.85
2022-10-18T11:26:48.814Z,23.50
2022-10-18T11:27:47.262Z,24.12
2022-10-18T11:28:46.322Z,25.13
2022-10-18T11:29:46.284Z,25.62
2022-10-18T11:30:46.363Z,25.89
2022-10-18T11:31:46.301Z,25.90
2022-10-18T11:32:46.193Z,25.34
2022-10-18T11:34:07.666Z,25.37
2022-10-18T11:34:47.175Z,25.65
2022-10-18T11:35:46.169Z,25.54
2022-10-18T11:36:54.732Z,25.56
2022-10-18T11:37:47.180Z,25.44
2022-10-18T11:38:46.228Z,25.79
2022-10-18T11:39:46.176Z,25.74
2022-10-18T11:40:46.147Z,25.57
2022-10-18T11:41:46.153Z,25.39
2022-10-18T11:42:46.129Z,26.01
2022-10-18T11:44:01.619Z,26.42
2022-10-18T11:44:47.128Z,26.57
2022-10-18T11:45:46.077Z,26.92
2022-10-18T11:46:46.088Z,27.35
2022-10-18T11:47:46.938Z,27.16
2022-10-18T11:48:46.162Z,26.74
2022-10-18T11:49:51.391Z,25.87
2022-10-18T11:50:46.091Z,26.02
2022-10-18T11:52:03.548Z,25.69
2022-10-18T11:52:47.000Z,26.04
2022-10-18T11:53:50.957Z,25.84
2022-10-18T11:54:46.964Z,25.68
2022-10-18T11:55:46.123Z,25.84
2022-10-18T11:56:45.942Z,26.62
2022-10-18T11:57:46.143Z,26.84
2022-10-18T11:58:45.922Z,26.61
2022-10-18T11:59:45.911Z,26.08
2022-10-18T12:00:45.904Z,25.80
2022-10-18T12:01:45.885Z,26.58
2022-10-18T12:02:46.023Z,27.10
2022-10-18T12:03:45.895Z,26.86
2022-10-18T12:04:58.493Z,27.54
2022-10-18T12:05:47.695Z,28.06
2022-10-18T12:06:45.835Z,27.84
2022-10-18T12:07:45.847Z,27.69
2022-10-18T12:08:45.835Z,26.57
2022-10-18T12:09:45.898Z,26.94
2022-10-18T12:11:03.926Z,25.82
2022-10-18T12:11:47.440Z,25.42
2022-10-18T12:12:45.904Z,25.94
2022-10-18T12:13:45.988Z,26.22
2022-10-18T12:14:45.755Z,26.40
2022-10-18T12:15:45.752Z,26.99
2022-10-18T12:16:51.375Z,27.57
2022-10-18T12:17:50.076Z,26.77
2022-10-18T12:18:45.771Z,27.11
2022-10-18T12:19:45.699Z,26.40
2022-10-18T12:20:45.708Z,26.06
2022-10-18T12:21:45.680Z,25.62
2022-10-18T12:22:45.676Z,26.52
2022-10-18T12:23:45.685Z,26.98
2022-10-18T12:24:45.644Z,26.83
2022-10-18T12:25:45.633Z,27.48
2022-10-18T12:26:45.622Z,27.50
2022-10-18T12:27:45.646Z,27.10
2022-10-18T12:28:45.656Z,26.65
2022-10-18T12:29:48.042Z,25.28
2022-10-18T12:30:45.585Z,24.82
2022-10-18T12:31:45.581Z,25.61
2022-10-18T12:33:02.068Z,26.18
2022-10-18T12:33:46.576Z,25.93
2022-10-18T12:34:45.536Z,26.76
2022-10-18T12:35:45.535Z,27.51
2022-10-18T12:36:45.526Z,28.11
2022-10-18T12:37:45.535Z,28.69
2022-10-18T12:38:45.496Z,27.39
2022-10-18T12:40:05.615Z,25.84
2022-10-18T12:40:46.471Z,25.79
2022-10-18T12:41:45.469Z,24.57
2022-10-18T12:42:45.458Z,23.72
2022-10-18T12:43:45.469Z,23.70
2022-10-18T12:44:45.430Z,23.72
2022-10-18T12:45:45.430Z,24.16
2022-10-18T12:46:45.411Z,23.20
2022-10-18T12:47:45.406Z,24.35
2022-10-18T12:48:45.432Z,25.44
2022-10-18T12:49:45.380Z,25.47
2022-10-18T12:50:45.372Z,25.68
2022-10-18T12:51:45.371Z,25.56
2022-10-18T12:52:45.351Z,25.13
2022-10-18T12:53:45.343Z,25.10
2022-10-18T12:54:45.351Z,25.47
2022-10-18T12:55:45.333Z,26.24
2022-10-18T12:56:45.305Z,26.54
2022-10-18T12:57:45.300Z,26.29
2022-10-18T12:58:45.285Z,25.84